Time;durP1;ratioP1;P1;durP2;ratioP2;P2;SDS_P1;SDS_P2;PMS_P1;PMS_P2;Temp;Humidity;BMP_temperature;BMP_pressure;BME280_temperature;BME280_humidity;BME280_pressure;Samples;Min_cycle;Max_cycle;Signal;HPM_P1;HPM_P2
2024/04/12 00:01:10;;;;;;;3.58;1.20;;;15.00;99.90;;;;;;5402542;26;20087;-66
2024/04/12 00:03:36;;;;;;;4.78;1.33;;;15.10;99.90;;;;;;5403650;26;20003;-67
2024/04/12 00:06:14;;;;;;;1.30;0.93;;;15.10;99.90;;;;;;5401579;26;19996;-67
2024/04/12 00:08:47;;;;;;;1.50;1.00;;;15.10;99.90;;;;;;5402376;26;20000;-67
2024/04/12 00:11:18;;;;;;;3.65;1.20;;;15.00;99.90;;;;;;5403686;26;20003;-67
2024/04/12 00:13:48;;;;;;;1.00;0.80;;;15.00;99.90;;;;;;5404041;26;19991;-67
2024/04/12 00:16:17;;;;;;;1.65;1.02;;;15.10;99.90;;;;;;5402498;26;20486;-67
2024/04/12 00:18:46;;;;;;;2.85;0.82;;;15.10;99.90;;;;;;5405975;26;19996;-67
2024/04/12 00:21:12;;;;;;;1.50;1.10;;;15.10;99.90;;;;;;5402244;26;20153;-67
2024/04/12 00:23:41;;;;;;;2.30;1.10;;;15.10;99.90;;;;;;5403182;26;20080;-67
2024/04/12 00:26:07;;;;;;;1.75;0.95;;;15.10;99.90;;;;;;5404546;26;19996;-67
2024/04/12 00:28:34;;;;;;;1.75;0.88;;;15.10;99.90;;;;;;5409054;26;19995;-67
2024/04/12 00:31:06;;;;;;;1.48;0.90;;;15.10;99.90;;;;;;5407459;26;19995;-67
2024/04/12 00:33:34;;;;;;;2.15;0.80;;;15.10;99.90;;;;;;5403329;26;20356;-66
2024/04/12 00:36:07;;;;;;;1.42;0.73;;;15.10;99.90;;;;;;5412047;26;20014;-67
2024/04/12 00:38:35;;;;;;;2.55;1.10;;;15.10;99.90;;;;;;5404980;26;20451;-67
2024/04/12 00:41:11;;;;;;;2.38;1.10;;;15.10;99.90;;;;;;5409663;26;20987;-68
2024/04/12 00:43:48;;;;;;;2.25;0.98;;;15.10;99.90;;;;;;5411314;26;19996;-68
2024/04/12 00:46:24;;;;;;;1.98;0.90;;;15.10;99.90;;;;;;5403767;26;20006;-69
2024/04/12 00:48:52;;;;;;;1.40;0.88;;;15.10;99.90;;;;;;5404824;26;20544;-68
2024/04/12 00:51:19;;;;;;;2.33;0.65;;;15.20;99.90;;;;;;5406592;26;20866;-68
2024/04/12 00:53:46;;;;;;;1.67;1.02;;;15.20;99.90;;;;;;5404865;26;20475;-69
2024/04/12 00:56:13;;;;;;;3.08;1.10;;;15.20;99.90;;;;;;5402705;26;20517;-68
2024/04/12 00:58:41;;;;;;;2.00;1.10;;;15.10;99.90;;;;;;5406608;26;20015;-68
2024/04/12 01:01:15;;;;;;;1.38;0.90;;;15.20;99.90;;;;;;5403169;26;20000;-69
2024/04/12 01:03:46;;;;;;;2.00;1.30;;;15.20;99.90;;;;;;5402833;26;19995;-68
2024/04/12 01:06:17;;;;;;;2.70;0.88;;;15.20;99.90;;;;;;5402334;26;20004;-68
2024/04/12 01:08:46;;;;;;;2.88;0.98;;;15.20;99.90;;;;;;5401512;26;20025;-68
2024/04/12 01:11:13;;;;;;;2.17;0.88;;;15.20;99.90;;;;;;5401720;26;20019;-69
2024/04/12 01:13:42;;;;;;;1.02;0.90;;;15.20;99.90;;;;;;5404657;26;20000;-69
2024/04/12 01:16:10;;;;;;;1.60;1.00;;;15.20;99.90;;;;;;5400769;26;20945;-69
2024/04/12 01:18:36;;;;;;;1.10;0.98;;;15.20;99.90;;;;;;5409024;26;20036;-68
2024/04/12 01:21:10;;;;;;;1.95;0.82;;;15.20;99.90;;;;;;5399805;26;20099;-69
2024/04/12 01:23:40;;;;;;;1.20;1.00;;;15.20;99.90;;;;;;5403670;26;20000;-68
2024/04/12 01:26:09;;;;;;;1.83;0.88;;;15.20;99.90;;;;;;5406148;26;19999;-69
2024/04/12 01:28:41;;;;;;;1.80;0.90;;;15.10;99.90;;;;;;5407087;26;20008;-68
2024/04/12 01:31:06;;;;;;;1.70;1.10;;;15.20;99.90;;;;;;5405168;26;20907;-68
2024/04/12 01:33:38;;;;;;;1.48;0.95;;;15.20;99.90;;;;;;5406938;26;20080;-68
2024/04/12 01:36:05;;;;;;;1.35;0.95;;;15.10;99.90;;;;;;5406704;26;20091;-68
2024/04/12 01:38:37;;;;;;;1.15;0.90;;;15.20;99.90;;;;;;5401662;26;20088;-68
2024/04/12 01:41:08;;;;;;;2.42;1.25;;;15.20;99.90;;;;;;5408281;26;19995;-68
2024/04/12 01:43:38;;;;;;;3.00;1.55;;;15.20;99.90;;;;;;5408609;26;20335;-68
2024/04/12 01:46:09;;;;;;;1.33;1.00;;;15.20;99.90;;;;;;5408458;26;20003;-69
2024/04/12 01:48:36;;;;;;;0.95;0.90;;;15.20;99.90;;;;;;5404168;26;20010;-69
2024/04/12 01:51:03;;;;;;;1.88;1.10;;;15.20;99.90;;;;;;5403220;26;20970;-68
2024/04/12 01:53:38;;;;;;;1.00;0.82;;;15.10;99.90;;;;;;5406244;26;20002;-68
2024/04/12 01:56:04;;;;;;;1.90;0.80;;;15.20;99.90;;;;;;5405262;26;20011;-68
2024/04/12 01:58:34;;;;;;;1.50;1.08;;;15.10;99.90;;;;;;5407738;26;20469;-68
2024/04/12 02:01:02;;;;;;;2.08;1.23;;;15.10;99.90;;;;;;5402900;26;20007;-68
2024/04/12 02:03:30;;;;;;;1.50;0.90;;;15.10;99.90;;;;;;5407505;26;20339;-68
2024/04/12 02:05:56;;;;;;;1.27;1.10;;;15.10;99.90;;;;;;5406782;26;20170;-68
2024/04/12 02:08:24;;;;;;;1.92;0.90;;;15.10;99.90;;;;;;5406621;26;19996;-68
2024/04/12 02:10:50;;;;;;;2.35;1.10;;;15.10;99.90;;;;;;5400883;26;19999;-68
2024/04/12 02:13:22;;;;;;;1.70;0.95;;;15.10;99.90;;;;;;5406936;26;20003;-68
2024/04/12 02:15:51;;;;;;;2.42;1.23;;;15.10;99.90;;;;;;5408090;26;20096;-69
2024/04/12 02:18:21;;;;;;;1.13;0.85;;;15.10;99.90;;;;;;5406889;26;20007;-68
2024/04/12 02:20:49;;;;;;;3.92;1.13;;;15.10;99.90;;;;;;5406755;26;20342;-69
2024/04/12 02:23:15;;;;;;;4.70;1.35;;;15.10;99.90;;;;;;5404995;26;20408;-68
2024/04/12 02:25:43;;;;;;;2.13;1.25;;;15.10;99.90;;;;;;5405517;26;20000;-69
2024/04/12 02:28:14;;;;;;;1.55;0.90;;;15.10;99.90;;;;;;5406239;26;19999;-68
2024/04/12 02:30:42;;;;;;;2.35;1.40;;;15.10;99.90;;;;;;5401826;26;20019;-68
2024/04/12 02:33:18;;;;;;;3.75;1.40;;;15.10;99.90;;;;;;5405506;26;20007;-68
2024/04/12 02:35:59;;;;;;;2.05;1.23;;;15.10;99.90;;;;;;5402109;26;20003;-69
2024/04/12 02:38:26;;;;;;;2.20;1.10;;;15.10;99.90;;;;;;5406047;26;20388;-68
2024/04/12 02:40:52;;;;;;;1.98;1.20;;;15.10;99.90;;;;;;5402067;26;19999;-68
2024/04/12 02:43:24;;;;;;;1.20;1.00;;;15.10;99.90;;;;;;5406458;26;20026;-67
2024/04/12 02:45:55;;;;;;;1.75;1.20;;;15.20;99.90;;;;;;5409680;26;20022;-68
2024/04/12 02:48:21;;;;;;;1.17;0.82;;;15.10;99.90;;;;;;5404370;26;20836;-68
2024/04/12 02:50:54;;;;;;;2.40;1.30;;;15.10;99.90;;;;;;5402402;26;20015;-69
2024/04/12 02:53:24;;;;;;;3.22;1.10;;;15.10;99.90;;;;;;5403169;26;20006;-68
2024/04/12 02:56:03;;;;;;;2.28;1.17;;;15.10;99.90;;;;;;5400464;26;20031;-69
2024/04/12 02:58:38;;;;;;;3.33;1.40;;;15.10;99.90;;;;;;5397368;26;20727;-68
2024/04/12 03:01:20;;;;;;;2.85;1.63;;;15.10;99.90;;;;;;5404882;26;20007;-68
2024/04/12 03:03:48;;;;;;;2.58;1.30;;;15.10;99.90;;;;;;5393005;26;20011;-68
2024/04/12 03:06:17;;;;;;;1.25;1.00;;;15.10;99.90;;;;;;5404803;26;20002;-68
2024/04/12 03:08:47;;;;;;;5.35;1.50;;;15.10;99.90;;;;;;5406105;26;19999;-69
2024/04/12 03:11:22;;;;;;;4.43;1.70;;;15.10;99.90;;;;;;5401699;26;19995;-68
2024/04/12 03:13:56;;;;;;;2.75;1.52;;;15.10;99.90;;;;;;5401511;26;20010;-69
2024/04/12 03:16:22;;;;;;;2.75;1.33;;;15.10;99.90;;;;;;5406581;26;20331;-69
2024/04/12 03:18:51;;;;;;;1.92;1.17;;;15.10;99.90;;;;;;5405706;26;20017;-69
2024/04/12 03:21:20;;;;;;;3.22;1.40;;;15.10;99.90;;;;;;5405087;26;20045;-68
2024/04/12 03:23:47;;;;;;;1.85;1.20;;;15.10;99.90;;;;;;5407177;26;20003;-68
2024/04/12 03:26:27;;;;;;;3.03;1.45;;;15.10;99.90;;;;;;5402567;26;19999;-68
2024/04/12 03:28:55;;;;;;;3.40;1.35;;;15.10;99.90;;;;;;5402197;26;19992;-68
2024/04/12 03:31:25;;;;;;;3.33;1.42;;;15.10;99.90;;;;;;5407276;26;20008;-68
2024/04/12 03:33:54;;;;;;;3.05;1.83;;;15.10;99.90;;;;;;5407748;26;20550;-68
2024/04/12 03:41:44;;;;;;;2.55;1.20;;;15.10;99.90;;;;;;5400752;26;19992;-68
2024/04/12 03:44:13;;;;;;;5.20;1.40;;;15.10;99.90;;;;;;5406551;26;20898;-68
2024/04/12 03:46:44;;;;;;;4.45;1.77;;;15.10;99.90;;;;;;5403603;26;20006;-69
2024/04/12 03:49:13;;;;;;;2.25;1.55;;;15.10;99.90;;;;;;5408948;26;20003;-68
2024/04/12 03:51:46;;;;;;;3.75;1.90;;;15.10;99.90;;;;;;5398972;26;20036;-68
2024/04/12 03:54:21;;;;;;;3.08;1.83;;;15.10;99.90;;;;;;5404485;26;20340;-68
2024/04/12 03:56:50;;;;;;;4.88;2.58;;;15.10;99.90;;;;;;5404501;26;19995;-68
2024/04/12 03:59:17;;;;;;;3.15;2.00;;;15.10;99.90;;;;;;5402177;26;19996;-68
2024/04/12 04:01:47;;;;;;;4.35;2.17;;;15.20;99.90;;;;;;5410048;26;20793;-68
2024/04/12 04:04:17;;;;;;;6.65;2.20;;;15.10;99.90;;;;;;5411266;26;19991;-68
2024/04/12 04:06:50;;;;;;;3.03;2.00;;;15.10;99.90;;;;;;5410060;26;20686;-68
2024/04/12 04:09:19;;;;;;;1.92;1.60;;;15.10;99.90;;;;;;5404689;26;20027;-68
2024/04/12 04:11:49;;;;;;;5.05;2.50;;;15.10;99.90;;;;;;5411166;26;20003;-68
2024/04/12 04:14:19;;;;;;;4.82;2.20;;;15.10;99.90;;;;;;5407341;26;20036;-68
2024/04/12 04:16:50;;;;;;;4.05;2.20;;;15.10;99.90;;;;;;5409621;26;20017;-68
2024/04/12 04:19:31;;;;;;;2.40;1.80;;;15.10;99.90;;;;;;5410014;26;19995;-68
2024/04/12 04:23:02;;;;;;;2.42;1.73;;;15.10;99.90;;;;;;5407582;26;19995;-68
2024/04/12 04:24:54;;;;;;;3.28;1.25;;;15.10;99.90;;;;;;5402192;26;19995;-68
2024/04/12 04:27:21;;;;;;;3.72;2.40;;;15.10;99.90;;;;;;5408328;26;20007;-68
2024/04/12 04:29:50;;;;;;;3.25;2.40;;;15.20;99.90;;;;;;5408669;26;20448;-68
2024/04/12 04:32:20;;;;;;;3.40;1.85;;;15.10;99.90;;;;;;5406390;26;20076;-68
2024/04/12 04:34:49;;;;;;;4.72;2.15;;;15.10;99.90;;;;;;5408353;26;20014;-68
2024/04/12 04:37:15;;;;;;;3.08;2.05;;;15.10;99.90;;;;;;5405422;26;20053;-68
2024/04/12 04:39:40;;;;;;;4.78;2.20;;;15.10;99.90;;;;;;5409766;26;20529;-68
2024/04/12 04:42:06;;;;;;;3.92;2.05;;;15.10;99.90;;;;;;5408795;26;20004;-68
2024/04/12 04:44:32;;;;;;;3.42;2.00;;;15.20;99.90;;;;;;5411161;26;20003;-68
2024/04/12 04:46:58;;;;;;;3.17;2.17;;;15.20;99.90;;;;;;5407139;26;20105;-69
2024/04/12 04:49:23;;;;;;;5.53;2.08;;;15.20;99.90;;;;;;5406207;26;19996;-69
2024/04/12 04:51:50;;;;;;;4.38;2.45;;;15.20;99.90;;;;;;5408608;26;20132;-68
2024/04/12 04:54:20;;;;;;;5.20;2.20;;;15.20;99.90;;;;;;5407540;26;20003;-68
2024/04/12 04:56:46;;;;;;;4.20;2.17;;;15.20;99.90;;;;;;5407618;26;20798;-68
2024/04/12 04:59:17;;;;;;;4.88;2.30;;;15.10;99.90;;;;;;5408594;26;20017;-68
2024/04/12 05:01:49;;;;;;;4.60;1.90;;;15.20;99.90;;;;;;5406619;26;19996;-68
2024/04/12 05:04:17;;;;;;;3.25;2.10;;;15.20;99.90;;;;;;5414760;26;20447;-68
2024/04/12 05:06:44;;;;;;;4.50;2.50;;;15.20;99.90;;;;;;5406575;26;20487;-68
2024/04/12 05:09:12;;;;;;;4.57;2.75;;;15.20;99.90;;;;;;5412865;26;20418;-68
2024/04/12 05:11:38;;;;;;;3.15;2.25;;;15.20;99.90;;;;;;5401840;26;19995;-68
2024/04/12 05:14:14;;;;;;;8.57;3.33;;;15.30;99.90;;;;;;5405688;26;20008;-68
2024/04/12 05:16:46;;;;;;;7.25;3.30;;;15.30;99.90;;;;;;5405679;26;19996;-69
2024/04/12 05:19:14;;;;;;;5.35;2.10;;;15.40;99.90;;;;;;5410268;26;20000;-68
2024/04/12 05:21:42;;;;;;;3.20;2.10;;;15.30;99.90;;;;;;5407605;26;20712;-69
2024/04/12 05:24:12;;;;;;;2.97;2.00;;;15.30;99.90;;;;;;5409705;26;19995;-68
2024/04/12 05:26:41;;;;;;;4.20;2.40;;;15.30;99.90;;;;;;5407583;26;19991;-68
2024/04/12 05:29:11;;;;;;;5.78;2.65;;;15.40;99.90;;;;;;5412856;26;19991;-68
2024/04/12 05:31:44;;;;;;;7.93;3.95;;;15.40;99.90;;;;;;5405694;26;20015;-68
2024/04/12 05:34:12;;;;;;;4.03;2.92;;;15.50;99.90;;;;;;5411309;26;20043;-68
2024/04/12 05:36:41;;;;;;;6.70;3.65;;;15.50;99.90;;;;;;5404672;26;20073;-68
2024/04/12 05:39:11;;;;;;;4.80;3.25;;;15.50;99.90;;;;;;5409095;26;20088;-68
2024/04/12 05:41:44;;;;;;;5.35;2.78;;;15.50;99.90;;;;;;5401477;26;20014;-68
2024/04/12 05:44:14;;;;;;;4.22;2.38;;;15.50;99.90;;;;;;5412838;26;20037;-68
2024/04/12 05:46:41;;;;;;;4.68;3.28;;;15.60;99.90;;;;;;5402751;26;20788;-69
2024/04/12 05:49:11;;;;;;;7.78;3.13;;;15.60;99.90;;;;;;5382520;26;20075;-69
2024/04/12 05:51:43;;;;;;;4.70;3.00;;;15.60;99.90;;;;;;5403688;26;20447;-69
2024/04/12 05:54:15;;;;;;;6.72;3.60;;;15.60;99.90;;;;;;5408018;26;19995;-68
2024/04/12 05:56:46;;;;;;;4.10;2.67;;;15.60;99.90;;;;;;5405606;26;19995;-68
2024/04/12 05:59:16;;;;;;;5.38;3.05;;;15.70;99.90;;;;;;5411099;26;19999;-68
2024/04/12 06:01:46;;;;;;;5.07;2.50;;;15.70;99.90;;;;;;5405244;26;19991;-68
2024/04/12 06:04:19;;;;;;;3.83;2.45;;;15.70;99.90;;;;;;5406427;26;20038;-68
2024/04/12 06:06:48;;;;;;;5.00;2.90;;;15.70;99.90;;;;;;5407920;26;20072;-68
2024/04/12 06:09:20;;;;;;;6.55;2.90;;;15.80;99.90;;;;;;5411739;26;20478;-68
2024/04/12 06:11:50;;;;;;;5.15;3.25;;;15.80;99.90;;;;;;5406398;26;19992;-68
2024/04/12 06:14:21;;;;;;;5.40;3.35;;;15.80;99.90;;;;;;5406057;26;20003;-68
2024/04/12 06:16:55;;;;;;;6.53;3.50;;;15.90;99.90;;;;;;5403151;26;20004;-68
2024/04/12 06:19:21;;;;;;;9.82;5.80;;;15.90;99.90;;;;;;5405685;26;19995;-68
2024/04/12 06:21:48;;;;;;;7.32;4.05;;;15.90;99.90;;;;;;5406400;26;20010;-69
2024/04/12 06:24:16;;;;;;;7.85;4.18;;;15.90;99.90;;;;;;5411080;26;20118;-68
2024/04/12 06:26:47;;;;;;;6.20;3.63;;;16.00;99.90;;;;;;5404495;26;19996;-68
2024/04/12 06:29:16;;;;;;;8.02;3.65;;;15.90;99.90;;;;;;5401769;26;20052;-68
2024/04/12 06:31:44;;;;;;;7.78;3.28;;;16.00;99.90;;;;;;5400379;26;20028;-69
2024/04/12 06:34:12;;;;;;;5.70;3.30;;;15.90;99.90;;;;;;5405408;26;20459;-69
2024/04/12 06:36:45;;;;;;;6.90;3.72;;;15.90;99.90;;;;;;5399144;26;20000;-69
2024/04/12 06:39:13;;;;;;;6.50;3.25;;;15.80;99.90;;;;;;5407581;26;20036;-68
2024/04/12 06:41:40;;;;;;;6.55;3.50;;;15.70;99.90;;;;;;5400569;26;20063;-68
2024/04/12 06:44:15;;;;;;;7.43;3.40;;;15.70;99.90;;;;;;5406612;26;19995;-69
2024/04/12 06:46:43;;;;;;;7.53;3.50;;;15.70;99.90;;;;;;5405279;26;20055;-69
2024/04/12 06:49:14;;;;;;;5.38;2.95;;;15.70;99.90;;;;;;5400132;26;20050;-69
2024/04/12 06:54:27;;;;;;;5.63;2.83;;;15.70;99.90;;;;;;5406439;26;20039;-68
2024/04/12 06:56:55;;;;;;;4.50;2.80;;;15.70;99.90;;;;;;5403920;26;20014;-69
2024/04/12 06:59:26;;;;;;;4.10;2.67;;;15.80;99.90;;;;;;5406384;26;20085;-69
2024/04/12 07:01:54;;;;;;;4.65;2.58;;;15.90;99.90;;;;;;5409196;26;19995;-68
2024/04/12 07:04:20;;;;;;;5.45;3.50;;;15.90;99.90;;;;;;5406029;26;20492;-68
2024/04/12 07:06:50;;;;;;;7.22;3.85;;;16.00;99.90;;;;;;5406660;26;20030;-69
2024/04/12 07:09:16;;;;;;;6.50;3.45;;;16.20;99.90;;;;;;5401106;26;20725;-69
2024/04/12 07:11:42;;;;;;;4.35;2.92;;;16.30;99.90;;;;;;5402050;26;20032;-69
2024/04/12 07:14:08;;;;;;;7.25;4.10;;;16.40;99.90;;;;;;5406229;26;20325;-69
2024/04/12 07:16:35;;;;;;;8.15;4.70;;;16.50;99.90;;;;;;5406709;26;20015;-68
2024/04/12 07:19:09;;;;;;;12.05;6.57;;;16.60;99.90;;;;;;5410377;26;20465;-69
2024/04/12 07:21:37;;;;;;;10.20;5.35;;;16.70;99.90;;;;;;5406381;26;20545;-68
2024/04/12 07:24:03;;;;;;;10.45;6.22;;;16.70;99.90;;;;;;5401819;26;20937;-68
2024/04/12 07:26:29;;;;;;;10.68;5.53;;;16.80;99.90;;;;;;5403151;26;20014;-68
2024/04/12 07:28:59;;;;;;;10.18;5.78;;;16.80;99.90;;;;;;5407707;26;20000;-66
2024/04/12 07:31:38;;;;;;;8.30;5.00;;;16.90;99.90;;;;;;5397060;26;20026;-67
2024/04/12 07:34:07;;;;;;;13.10;6.05;;;16.90;99.90;;;;;;5407894;26;20597;-66
2024/04/12 07:36:34;;;;;;;8.20;4.53;;;16.90;99.90;;;;;;5403129;26;20093;-67
2024/04/12 07:39:04;;;;;;;8.85;4.60;;;16.90;99.90;;;;;;5405528;26;20565;-67
2024/04/12 07:41:33;;;;;;;9.15;5.20;;;16.90;99.90;;;;;;5402841;26;20010;-66
2024/04/12 07:43:59;;;;;;;9.95;4.97;;;16.90;99.90;;;;;;5408395;26;19996;-67
2024/04/12 07:46:33;;;;;;;12.05;4.95;;;16.90;99.90;;;;;;5405142;26;20793;-67
2024/04/12 07:49:02;;;;;;;11.38;5.35;;;16.90;99.90;;;;;;5403360;26;20011;-67
2024/04/12 07:51:31;;;;;;;8.55;5.65;;;17.00;99.90;;;;;;5411069;26;20636;-67
2024/04/12 07:54:06;;;;;;;12.70;6.10;;;17.10;99.90;;;;;;5406746;26;20008;-66
2024/04/12 07:56:37;;;;;;;10.45;5.28;;;17.20;99.90;;;;;;5408071;26;20001;-67
2024/04/12 07:59:25;;;;;;;8.77;5.78;;;17.20;99.90;;;;;;5405026;26;20073;-67
2024/04/12 08:01:57;;;;;;;8.88;5.63;;;17.30;99.90;;;;;;5404741;26;20073;-66
2024/04/12 08:04:23;;;;;;;13.35;8.52;;;17.30;99.90;;;;;;5406211;26;20076;-66
2024/04/12 08:06:56;;;;;;;12.40;6.47;;;17.30;99.90;;;;;;5399616;26;20011;-66
2024/04/12 08:09:34;;;;;;;12.23;8.27;;;17.20;99.90;;;;;;5405780;26;20009;-66
2024/04/12 08:12:49;;;;;;;12.20;6.82;;;17.30;99.90;;;;;;5405533;26;19991;-66
2024/04/12 08:14:54;;;;;;;11.73;7.00;;;17.40;99.90;;;;;;5413930;26;20873;-67
2024/04/12 08:17:27;;;;;;;12.27;7.53;;;17.20;99.90;;;;;;5401125;26;19995;-66
2024/04/12 08:19:56;;;;;;;12.65;6.55;;;17.20;99.90;;;;;;5411090;26;19995;-65
2024/04/12 08:22:25;;;;;;;12.20;7.03;;;17.20;99.90;;;;;;5407614;26;20002;-66
2024/04/12 08:24:52;;;;;;;14.48;7.80;;;17.20;99.90;;;;;;5408249;26;19995;-66
2024/04/12 08:27:27;;;;;;;12.57;7.07;;;17.20;99.90;;;;;;5406319;26;20008;-66
2024/04/12 08:29:56;;;;;;;11.95;7.43;;;17.10;99.90;;;;;;5401534;26;20016;-66
2024/04/12 08:32:28;;;;;;;18.05;9.95;;;17.10;99.90;;;;;;5402502;26;19996;-66
2024/04/12 08:34:57;;;;;;;14.25;7.80;;;17.10;99.90;;;;;;5399398;26;20007;-66
2024/04/12 08:37:30;;;;;;;13.75;9.05;;;17.20;99.90;;;;;;5405300;26;19992;-66
2024/04/12 08:39:57;;;;;;;14.18;8.00;;;17.20;99.90;;;;;;5404675;26;19992;-65
2024/04/12 08:42:29;;;;;;;11.55;6.65;;;17.20;99.90;;;;;;5402593;26;19995;-66
2024/04/12 08:45:00;;;;;;;12.05;7.70;;;17.30;99.90;;;;;;5404161;26;20006;-66
2024/04/12 08:50:07;;;;;;;11.15;7.25;;;17.50;99.90;;;;;;5411415;26;20616;-66
2024/04/12 08:52:44;;;;;;;14.35;7.72;;;17.60;99.90;;;;;;5408524;26;19995;-66
2024/04/12 08:55:13;;;;;;;35.80;16.58;;;17.60;99.90;;;;;;5403220;26;20336;-66
2024/04/12 08:57:47;;;;;;;13.93;7.57;;;17.70;99.90;;;;;;5400242;26;20085;-66
2024/04/12 09:00:18;;;;;;;14.88;7.82;;;17.70;99.90;;;;;;5404272;26;20004;-66
2024/04/12 09:02:58;;;;;;;13.10;6.50;;;17.60;99.20;;;;;;5398236;26;20050;-66
2024/04/12 09:05:25;;;;;;;8.55;5.07;;;17.60;99.50;;;;;;5403965;26;20463;-67
2024/04/12 09:07:58;;;;;;;9.75;5.85;;;17.60;99.90;;;;;;5405053;26;20067;-67
2024/04/12 09:10:37;;;;;;;10.70;6.60;;;17.60;99.60;;;;;;5398651;26;20558;-67
2024/04/12 09:13:09;;;;;;;8.90;5.82;;;17.50;99.80;;;;;;5400907;26;20003;-67
2024/04/12 09:15:38;;;;;;;12.02;6.47;;;17.60;99.60;;;;;;5403643;26;20018;-67
2024/04/12 09:18:13;;;;;;;11.55;6.50;;;17.50;99.80;;;;;;5407484;26;20658;-67
2024/04/12 09:20:40;;;;;;;13.80;8.15;;;17.50;99.90;;;;;;5405582;26;20011;-65
2024/04/12 09:23:19;;;;;;;25.58;16.48;;;17.60;99.90;;;;;;5406474;26;20011;-66
2024/04/12 09:25:54;;;;;;;17.90;9.45;;;17.70;99.90;;;;;;5407339;26;19999;-66
2024/04/12 09:28:22;;;;;;;10.63;5.30;;;17.90;99.30;;;;;;5398245;26;20030;-65
2024/04/12 09:33:33;;;;;;;9.07;5.22;;;17.80;99.00;;;;;;5406100;26;20015;-66
2024/04/12 09:36:14;;;;;;;9.70;5.68;;;17.90;99.10;;;;;;5407748;26;20030;-66
2024/04/12 09:38:41;;;;;;;12.10;6.25;;;18.00;99.30;;;;;;5404212;26;20007;-66
2024/04/12 09:41:31;;;;;;;11.40;5.03;;;18.00;98.80;;;;;;5406629;26;20585;-66
2024/04/12 09:43:59;;;;;;;11.65;5.57;;;18.00;98.80;;;;;;5413155;26;19992;-67
2024/04/12 10:37:22;;;;;;;10.98;5.47;;;17.90;98.40;;;;;;5406064;26;19995;-66
2024/04/12 10:39:49;;;;;;;9.65;4.75;;;18.50;97.10;;;;;;5431920;26;20003;-66
2024/04/12 10:42:20;;;;;;;6.30;3.92;;;18.30;97.60;;;;;;5429765;26;20003;-66
2024/04/12 10:44:47;;;;;;;6.43;3.97;;;18.30;97.80;;;;;;5437680;26;20075;-67
2024/04/12 10:47:13;;;;;;;8.55;4.32;;;18.40;97.60;;;;;;5431795;26;19999;-66
2024/04/12 10:49:43;;;;;;;6.80;3.20;;;18.40;97.40;;;;;;5428970;26;19999;-66
2024/04/12 10:52:13;;;;;;;8.50;3.58;;;18.50;97.70;;;;;;5429247;26;20000;-66
2024/04/12 10:54:43;;;;;;;6.70;3.42;;;18.60;97.40;;;;;;5437315;26;20075;-66
2024/04/12 10:57:10;;;;;;;5.28;3.80;;;18.60;96.40;;;;;;5428639;26;20007;-68
2024/04/12 10:59:42;;;;;;;6.35;4.22;;;18.70;97.00;;;;;;5426211;26;20014;-66
2024/04/12 11:02:10;;;;;;;8.52;3.58;;;18.80;96.80;;;;;;5430860;26;20475;-66
2024/04/12 11:07:21;;;;;;;4.28;2.70;;;19.20;96.40;;;;;;5432385;26;20002;-66
2024/04/12 11:09:57;;;;;;;5.57;2.80;;;19.50;95.50;;;;;;5423403;26;20330;-66
2024/04/12 11:12:45;;;;;;;5.43;2.90;;;19.80;95.50;;;;;;5433426;26;20002;-66
2024/04/12 11:31:55;;;;;;;6.45;2.75;;;20.90;94.10;;;;;;5427777;26;20077;-66
2024/04/12 11:34:25;;;;;;;4.65;2.75;;;21.00;92.60;;;;;;5429164;26;19999;-66
2024/04/12 11:36:54;;;;;;;4.22;2.45;;;20.80;93.00;;;;;;5436636;26;20013;-66
2024/04/12 11:39:25;;;;;;;5.55;3.38;;;20.70;93.00;;;;;;5426870;26;20538;-66
2024/04/12 11:41:56;;;;;;;3.08;2.30;;;20.70;93.30;;;;;;5429027;26;20007;-66
2024/04/12 11:44:23;;;;;;;2.47;2.20;;;20.70;93.70;;;;;;5434928;26;20668;-67
2024/04/12 11:46:49;;;;;;;3.95;2.63;;;20.90;93.40;;;;;;5435198;26;20010;-67
2024/04/12 11:49:26;;;;;;;2.75;2.10;;;21.20;93.70;;;;;;5436760;26;20038;-66
2024/04/12 11:51:55;;;;;;;3.47;2.78;;;21.40;92.80;;;;;;5435080;26;20010;-67
2024/04/12 11:54:30;;;;;;;4.95;2.42;;;21.60;92.40;;;;;;5430326;26;20009;-67
2024/04/12 11:57:00;;;;;;;4.07;2.58;;;21.70;92.40;;;;;;5432037;26;19999;-67
2024/04/12 11:59:36;;;;;;;5.25;2.83;;;21.70;92.00;;;;;;5426753;26;20355;-67
2024/04/12 12:02:04;;;;;;;;;;;21.80;92.00;;;;;;5432997;26;19998;-67
2024/04/12 12:04:31;;;;;;;3.05;2.08;;;21.80;90.60;;;;;;5428594;26;19932;-66
2024/04/12 12:07:02;;;;;;;4.38;2.45;;;21.80;91.60;;;;;;5430256;26;20051;-66
2024/04/12 12:09:31;;;;;;;3.70;2.33;;;21.90;90.90;;;;;;5433026;26;20447;-66
2024/04/12 12:12:00;;;;;;;4.18;2.50;;;21.80;91.70;;;;;;5447115;26;20048;-67
2024/04/12 12:14:27;;;;;;;4.70;2.42;;;21.70;91.60;;;;;;5426695;26;19995;-67
2024/04/12 12:16:59;;;;;;;6.93;2.53;;;21.70;90.90;;;;;;5431734;26;20014;-68
2024/04/12 12:19:25;;;;;;;2.53;2.08;;;21.70;91.40;;;;;;5429408;26;20006;-67
2024/04/12 12:21:51;;;;;;;3.13;2.50;;;21.40;90.60;;;;;;5434086;26;20455;-67
2024/04/12 12:24:17;;;;;;;5.72;2.10;;;21.20;91.30;;;;;;5433588;26;20039;-67
2024/04/12 12:26:44;;;;;;;3.63;1.90;;;21.30;91.90;;;;;;5437981;26;19990;-65
2024/04/12 12:29:13;;;;;;;3.50;1.98;;;21.40;91.60;;;;;;5434810;26;20004;-68
2024/04/12 12:31:38;;;;;;;1.50;1.40;;;21.70;92.10;;;;;;5433455;26;19995;-67
2024/04/12 12:34:05;;;;;;;4.30;1.85;;;21.70;91.00;;;;;;5432317;26;20013;-66
2024/04/12 12:36:33;;;;;;;2.55;1.60;;;21.90;91.50;;;;;;5435223;26;20002;-66
2024/04/12 12:38:59;;;;;;;4.80;1.63;;;22.10;90.50;;;;;;5430222;26;20047;-66
2024/04/12 12:41:25;;;;;;;3.35;1.73;;;22.20;90.10;;;;;;5427449;26;20010;-66
2024/04/12 12:43:52;;;;;;;3.17;1.25;;;22.20;90.30;;;;;;5432776;26;20646;-66
2024/04/12 12:46:23;;;;;;;6.30;1.70;;;22.40;90.20;;;;;;5439602;26;20420;-67
2024/04/12 12:48:52;;;;;;;2.30;1.52;;;22.40;90.30;;;;;;5427558;26;20014;-67
2024/04/12 12:51:26;;;;;;;2.55;1.60;;;22.50;89.80;;;;;;5435778;26;20006;-66
2024/04/12 12:53:56;;;;;;;5.30;1.60;;;22.60;89.80;;;;;;5431090;26;19999;-67
2024/04/12 12:56:22;;;;;;;2.80;1.90;;;22.60;90.20;;;;;;5438372;26;19999;-67
2024/04/12 12:58:48;;;;;;;1.58;1.48;;;22.50;88.10;;;;;;5435603;26;20493;-67
2024/04/12 13:01:17;;;;;;;2.83;1.58;;;22.40;88.70;;;;;;5434975;26;20010;-67
2024/04/12 13:03:47;;;;;;;2.22;1.40;;;22.30;88.60;;;;;;5432244;26;20007;-67
2024/04/12 13:06:21;;;;;;;2.40;1.33;;;22.30;90.00;;;;;;5435147;26;20449;-67
2024/04/12 13:08:51;;;;;;;3.45;1.67;;;22.30;90.40;;;;;;5429470;26;20030;-67
2024/04/12 13:11:24;;;;;;;2.03;1.40;;;22.40;90.60;;;;;;5432952;26;21144;-67
2024/04/12 13:13:51;;;;;;;2.10;1.50;;;22.50;90.20;;;;;;5438545;26;20018;-67
2024/04/12 13:16:17;;;;;;;2.70;1.58;;;22.60;90.20;;;;;;5439784;26;20067;-66
2024/04/12 13:18:44;;;;;;;1.85;1.52;;;22.60;90.00;;;;;;5432128;26;20013;-66
2024/04/12 13:21:11;;;;;;;4.57;1.35;;;22.60;89.00;;;;;;5435405;26;20040;-66
2024/04/12 13:23:42;;;;;;;9.80;2.33;;;22.60;90.20;;;;;;5431506;26;20446;-67
2024/04/12 13:26:08;;;;;;;3.47;1.67;;;22.50;88.10;;;;;;5435547;26;19999;-67
2024/04/12 13:28:38;;;;;;;2.15;1.33;;;22.40;89.80;;;;;;5428511;26;20010;-67
2024/04/12 13:31:05;;;;;;;5.95;1.63;;;22.40;87.70;;;;;;5433559;26;19999;-66
2024/04/12 13:33:33;;;;;;;2.08;1.33;;;22.20;87.60;;;;;;5431941;26;19995;-66
2024/04/12 13:36:00;;;;;;;1.90;1.67;;;22.10;88.70;;;;;;5431650;26;20002;-66
2024/04/12 13:38:27;;;;;;;2.58;1.25;;;22.00;90.10;;;;;;5428706;26;20385;-66
2024/04/12 13:40:57;;;;;;;3.08;1.65;;;22.00;90.90;;;;;;5432622;26;20440;-66
2024/04/12 13:43:25;;;;;;;2.22;1.30;;;22.00;90.10;;;;;;5435453;26;20072;-66
2024/04/12 13:51:21;;;;;;;2.15;1.50;;;22.00;90.50;;;;;;5436311;26;20495;-67
2024/04/12 13:53:51;;;;;;;5.57;2.08;;;22.10;90.70;;;;;;5433039;26;20011;-67
2024/04/12 13:56:32;;;;;;;5.05;2.10;;;22.20;90.80;;;;;;5432224;26;19999;-66
2024/04/12 13:59:01;;;;;;;3.42;1.40;;;22.30;90.50;;;;;;5433679;26;20003;-66
2024/04/12 14:01:29;;;;;;;2.88;1.50;;;22.20;89.10;;;;;;5430223;26;20363;-67
2024/04/12 14:04:04;;;;;;;3.03;1.70;;;22.30;89.50;;;;;;5429128;26;19995;-68
2024/04/12 14:06:34;;;;;;;5.60;1.30;;;22.30;90.10;;;;;;5432169;26;19995;-69
2024/04/12 14:09:13;;;;;;;3.25;1.33;;;22.30;90.40;;;;;;5437487;26;20072;-69
2024/04/12 14:11:42;;;;;;;4.03;1.30;;;22.40;90.30;;;;;;5433628;26;20371;-69
2024/04/12 14:14:09;;;;;;;3.95;1.95;;;22.50;89.80;;;;;;5438732;26;20009;-69
2024/04/12 14:16:41;;;;;;;2.50;1.35;;;22.50;89.00;;;;;;5433794;26;20029;-69
2024/04/12 14:19:20;;;;;;;5.40;1.27;;;22.50;89.70;;;;;;5438034;26;20005;-69
2024/04/12 14:21:53;;;;;;;3.78;1.35;;;22.40;90.00;;;;;;5427908;26;20455;-69
2024/04/12 14:27:05;;;;;;;2.97;1.48;;;22.60;90.70;;;;;;5432587;26;20125;-69
2024/04/12 14:29:32;;;;;;;3.45;1.10;;;22.70;89.80;;;;;;5433557;26;19994;-67
2024/04/12 14:32:05;;;;;;;2.55;1.30;;;22.70;89.90;;;;;;5438440;26;20026;-67